Time;durP1;ratioP1;P1;durP2;ratioP2;P2;SDS_P1;SDS_P2;PMS_P1;PMS_P2;Temp;Humidity;BMP_temperature;BMP_pressure;BME280_temperature;BME280_humidity;BME280_pressure;Samples;Min_cycle;Max_cycle;Signal;HPM_P1;HPM_P2
2021/03/08 00:00:10;;;;;;;;;;;;;;;;;;;;;
2021/03/08 00:05:47;;;;;;;26.80;15.27;;;1.80;99.90;;;;;;6042503;23;20914;-83
2021/03/08 00:08:26;;;;;;;22.63;15.30;;;1.80;99.90;;;;;;6184969;23;20436;-84
2021/03/08 00:11:07;;;;;;;22.90;13.77;;;1.80;99.90;;;;;;6185547;23;20491;-84
2021/03/08 00:17:18;;;;;;;;;;;;;;;;;;;;;
2021/03/08 00:20:07;;;;;;;26.03;12.57;;;2.00;99.90;;;;;;6158961;23;20417;-84
2021/03/08 00:25:34;;;;;;;22.03;12.83;;;2.00;99.90;;;;;;6183828;23;20424;-84
2021/03/08 00:32:11;;;;;;;22.93;13.10;;;2.00;99.90;;;;;;6170491;23;20413;-84
2021/03/08 00:34:59;;;;;;;21.90;12.93;;;1.90;99.90;;;;;;6182014;23;20453;-83
2021/03/08 00:41:05;;;;;;;;;;;;;;;;;;;;;
2021/03/08 00:43:55;;;;;;;27.20;17.13;;;1.90;99.90;;;;;;6019578;23;20409;-84
2021/03/08 00:46:35;;;;;;;25.70;16.27;;;1.80;99.90;;;;;;6185782;23;20401;-83
2021/03/08 00:49:09;;;;;;;24.43;16.20;;;1.70;99.90;;;;;;6185067;23;20405;-84
2021/03/08 00:51:45;;;;;;;26.60;17.10;;;1.90;99.90;;;;;;6184276;23;20402;-84
2021/03/08 00:54:32;;;;;;;26.97;17.33;;;1.80;99.90;;;;;;6194935;23;20416;-84
2021/03/08 00:57:12;;;;;;;;;;;;;;;;;;;;;
2021/03/08 01:00:02;;;;;;;;;;;;;;;;;;;;;
2021/03/08 01:02:36;;;;;;;28.13;17.30;;;1.70;99.90;;;;;;6184641;23;20441;-83
2021/03/08 01:05:12;;;;;;;31.40;15.90;;;1.70;99.90;;;;;;6195207;23;20496;-83
2021/03/08 01:07:44;;;;;;;26.33;16.40;;;1.80;99.90;;;;;;6193879;23;20419;-84
2021/03/08 01:10:15;;;;;;;30.47;14.13;;;2.00;99.90;;;;;;6195145;23;20740;-84
2021/03/08 01:13:04;;;;;;;19.40;12.63;;;2.00;99.90;;;;;;6185345;23;20475;-84
2021/03/08 01:15:56;;;;;;;29.10;14.93;;;2.00;99.90;;;;;;6170675;23;20420;-83
2021/03/08 01:18:28;;;;;;;22.77;11.63;;;2.10;99.90;;;;;;6174692;23;20486;-84
2021/03/08 01:20:58;;;;;;;25.10;13.80;;;2.10;99.90;;;;;;6183881;23;20469;-83
2021/03/08 01:23:46;;;;;;;21.70;13.47;;;2.00;99.90;;;;;;6185275;23;20488;-84
2021/03/08 01:26:30;;;;;;;29.00;14.73;;;2.20;99.90;;;;;;6141745;23;20427;-83
2021/03/08 01:29:24;;;;;;;24.90;13.80;;;2.20;99.90;;;;;;6187310;23;20432;-84
2021/03/08 01:32:08;;;;;;;;;;;;;;;;;;;;;
2021/03/08 01:34:38;;;;;;;27.53;16.00;;;2.20;99.90;;;;;;6197256;23;20416;-84
2021/03/08 01:37:23;;;;;;;41.77;18.57;;;2.10;99.90;;;;;;6196165;23;20409;-84
2021/03/08 01:39:58;;;;;;;27.43;16.57;;;2.00;99.90;;;;;;6186804;23;20927;-84
2021/03/08 01:42:34;;;;;;;29.73;17.30;;;2.10;99.90;;;;;;6196985;23;20502;-84
2021/03/08 01:45:47;;;;;;;23.87;15.83;;;2.00;99.90;;;;;;6196664;23;20417;-84
2021/03/08 01:48:53;;;;;;;;;;;;;;;;;;;;;
2021/03/08 01:51:28;;;;;;;30.83;19.07;;;2.00;99.90;;;;;;6038702;23;20993;-84
2021/03/08 01:56:51;;;;;;;29.80;19.70;;;2.00;99.90;;;;;;6194880;23;20816;-84
2021/03/08 01:59:20;;;;;;;32.87;18.70;;;1.90;99.90;;;;;;6196706;23;20467;-84
2021/03/08 02:02:13;;;;;;;36.23;21.90;;;2.00;99.90;;;;;;6186906;23;20455;-85
2021/03/08 02:05:10;;;;;;;;;;;;;;;;;;;;;
2021/03/08 02:07:49;;;;;;;31.90;18.53;;;1.90;99.90;;;;;;6153580;23;20797;-85
2021/03/08 02:11:02;;;;;;;35.10;21.23;;;1.90;99.90;;;;;;6186660;23;20455;-84
2021/03/08 02:14:03;;;;;;;35.97;19.90;;;1.90;99.90;;;;;;6156983;23;20423;-83
2021/03/08 02:17:02;;;;;;;32.53;18.17;;;1.80;99.90;;;;;;6184927;23;20496;-84
2021/03/08 02:20:14;;;;;;;;;;;;;;;;;;;;;
2021/03/08 02:23:33;;;;;;;;;;;;;;;;;;;;;
2021/03/08 02:26:29;;;;;;;37.87;21.50;;;1.80;99.90;;;;;;6152736;23;20734;-84
2021/03/08 02:29:31;;;;;;;34.30;20.70;;;1.80;99.90;;;;;;6186348;23;20432;-83
2021/03/08 02:32:21;;;;;;;42.00;23.10;;;1.80;99.90;;;;;;6186347;23;20401;-84
2021/03/08 02:34:56;;;;;;;47.20;25.77;;;1.60;99.90;;;;;;6186556;23;20488;-83
2021/03/08 02:37:26;;;;;;;42.37;27.37;;;1.80;99.90;;;;;;6195686;23;20401;-84
2021/03/08 02:40:18;;;;;;;35.27;24.30;;;1.70;99.90;;;;;;6195873;23;20819;-84
2021/03/08 02:42:50;;;;;;;39.23;24.97;;;1.60;99.90;;;;;;6143899;23;20531;-83
2021/03/08 02:45:22;;;;;;;49.37;29.13;;;1.70;99.90;;;;;;6186396;23;20409;-84
2021/03/08 02:47:54;;;;;;;54.28;26.65;;;1.70;99.90;;;;;;6187061;23;20882;-84
2021/03/08 02:50:32;;;;;;;47.73;27.70;;;1.60;99.90;;;;;;6196670;23;20561;-83
2021/03/08 02:53:18;;;;;;;;;;;;;;;;;;;;;
2021/03/08 02:55:52;;;;;;;44.30;31.13;;;1.60;99.90;;;;;;6186190;23;20442;-84
2021/03/08 02:58:34;;;;;;;43.70;28.80;;;1.50;99.90;;;;;;6199897;23;20402;-84
2021/03/08 03:01:03;;;;;;;42.73;26.77;;;1.60;99.90;;;;;;6196402;23;20441;-84
2021/03/08 03:04:00;;;;;;;42.30;26.50;;;1.70;99.90;;;;;;6186151;23;20477;-83
2021/03/08 03:06:35;;;;;;;51.73;30.07;;;1.70;99.90;;;;;;6183535;23;20452;-83
2021/03/08 03:09:43;;;;;;;54.10;32.17;;;1.60;99.90;;;;;;6186274;23;20487;-84
2021/03/08 03:12:18;;;;;;;54.30;35.40;;;1.70;99.90;;;;;;6186145;23;20469;-83
2021/03/08 03:14:53;;;;;;;39.17;29.80;;;1.70;99.90;;;;;;6196343;23;20419;-83
2021/03/08 03:17:48;;;;;;;42.10;30.23;;;1.70;99.90;;;;;;6186216;23;20400;-84
2021/03/08 03:20:17;;;;;;;40.77;27.60;;;1.60;99.90;;;;;;6046609;23;20822;-82
2021/03/08 03:23:12;;;;;;;47.30;30.07;;;1.60;99.90;;;;;;6153624;23;20527;-84
2021/03/08 03:25:48;;;;;;;54.03;34.77;;;1.50;99.90;;;;;;6185416;23;20401;-84
2021/03/08 03:28:25;;;;;;;51.70;35.63;;;1.40;99.90;;;;;;6185671;23;20906;-84
2021/03/08 03:31:05;;;;;;;50.90;37.85;;;1.50;99.90;;;;;;6195890;23;20746;-83
2021/03/08 03:33:56;;;;;;;55.20;37.80;;;1.50;99.90;;;;;;6195870;23;20162;-84
2021/03/08 03:36:46;;;;;;;59.33;39.90;;;1.50;99.90;;;;;;6194478;23;20488;-83
2021/03/08 03:39:13;;;;;;;59.17;42.93;;;1.50;99.90;;;;;;6195436;23;20758;-83
2021/03/08 03:41:47;;;;;;;58.10;45.23;;;1.50;99.90;;;;;;6195614;23;20757;-83
2021/03/08 03:44:45;;;;;;;55.00;49.17;;;1.40;99.90;;;;;;6195581;23;20409;-80
2021/03/08 03:47:38;;;;;;;61.70;49.90;;;1.40;99.90;;;;;;6036308;23;20438;-81
2021/03/08 03:50:40;;;;;;;;;;;;;;;;;;;;;
2021/03/08 03:53:09;;;;;;;60.93;49.80;;;1.40;99.90;;;;;;6195086;23;20413;-81
2021/03/08 03:56:02;;;;;;;63.90;51.63;;;1.50;99.90;;;;;;6195084;23;20409;-81
2021/03/08 04:04:53;;;;;;;66.60;47.77;;;1.40;99.90;;;;;;6096290;23;20447;-79
2021/03/08 04:07:20;;;;;;;60.13;47.30;;;1.40;99.90;;;;;;6184502;23;20748;-81
2021/03/08 04:10:14;;;;;;;61.80;46.43;;;1.40;99.90;;;;;;6185275;23;20917;-82
2021/03/08 04:12:49;;;;;;;59.27;44.83;;;1.30;99.90;;;;;;6185901;23;20407;-81
2021/03/08 04:15:22;;;;;;;62.97;47.17;;;1.30;99.90;;;;;;6185703;23;20401;-81
2021/03/08 04:17:56;;;;;;;68.03;51.80;;;1.40;99.90;;;;;;6185940;23;20405;-80
2021/03/08 04:20:26;;;;;;;64.73;49.80;;;1.30;99.90;;;;;;6185509;23;20405;-80
2021/03/08 04:22:55;;;;;;;63.47;52.58;;;1.30;99.90;;;;;;6184089;23;20433;-80
2021/03/08 04:25:23;;;;;;;57.43;51.13;;;1.30;99.90;;;;;;6185517;23;20165;-80
2021/03/08 04:27:57;;;;;;;63.47;51.67;;;1.20;99.90;;;;;;6118613;23;20979;-80
2021/03/08 04:30:45;;;;;;;62.27;52.00;;;1.10;99.90;;;;;;6185612;23;20430;-80
2021/03/08 04:33:14;;;;;;;79.23;58.87;;;1.00;99.90;;;;;;6184915;23;20397;-80
2021/03/08 04:35:46;;;;;;;74.30;66.33;;;1.00;99.90;;;;;;6185393;23;20476;-80
2021/03/08 04:38:28;;;;;;;69.23;61.73;;;1.00;99.90;;;;;;6195101;23;20804;-81
2021/03/08 04:41:06;;;;;;;69.30;57.57;;;1.00;99.90;;;;;;6185304;23;20455;-81
2021/03/08 04:43:32;;;;;;;81.27;61.60;;;1.10;99.90;;;;;;6184740;23;20405;-80
2021/03/08 04:46:16;;;;;;;72.90;64.87;;;1.10;99.90;;;;;;6185348;23;20398;-81
2021/03/08 04:48:44;;;;;;;73.50;60.10;;;1.00;99.90;;;;;;6185288;23;20795;-81
2021/03/08 04:51:25;;;;;;;85.40;60.67;;;0.90;99.90;;;;;;6184105;23;20487;-80
2021/03/08 04:53:53;;;;;;;86.80;76.80;;;0.70;99.90;;;;;;6195105;23;20397;-80
2021/03/08 04:56:26;;;;;;;86.97;78.03;;;0.70;99.90;;;;;;6195287;23;20176;-80
2021/03/08 04:58:59;;;;;;;101.27;92.00;;;0.70;99.90;;;;;;6195005;23;20166;-81
2021/03/08 05:01:29;;;;;;;110.40;101.50;;;0.80;99.90;;;;;;6186391;23;20793;-80
2021/03/08 05:03:57;;;;;;;123.90;113.40;;;0.60;99.90;;;;;;6187448;23;20425;-80
2021/03/08 05:06:34;;;;;;;116.97;107.27;;;0.70;99.90;;;;;;6196109;23;20412;-80
2021/03/08 05:09:03;;;;;;;123.53;113.90;;;0.60;99.90;;;;;;6120316;23;20416;-80
2021/03/08 05:11:51;;;;;;;;;;;;;;;;;;;;;
2021/03/08 05:14:37;;;;;;;115.07;104.97;;;0.60;99.90;;;;;;6096462;23;20408;-81
2021/03/08 05:22:49;;;;;;;114.43;104.78;;;0.50;99.90;;;;;;6168462;23;20225;-80
2021/03/08 05:25:37;;;;;;;129.18;118.57;;;0.50;99.90;;;;;;6196573;23;20165;-80
2021/03/08 05:31:34;;;;;;;;;;;;;;;;;;;;;
2021/03/08 05:37:56;;;;;;;154.07;141.37;;;0.60;99.90;;;;;;5978613;23;20444;-81
2021/03/08 05:40:39;;;;;;;146.67;135.37;;;0.70;99.90;;;;;;6066510;23;20416;-81
2021/03/08 05:43:18;;;;;;;153.18;140.70;;;0.60;99.90;;;;;;6152414;23;20444;-81
2021/03/08 05:45:58;;;;;;;151.73;137.47;;;0.80;99.90;;;;;;6186879;23;20158;-81
2021/03/08 05:52:34;;;;;;;143.00;130.37;;;0.80;99.90;;;;;;6180082;23;20166;-80
2021/03/08 06:03:20;;;;;;;;;;;;;;;;;;;;;
2021/03/08 06:06:39;;;;;;;;;;;;;;;;;;;;;
2021/03/08 06:10:05;;;;;;;;;;;;;;;;;;;;;
2021/03/08 06:13:32;;;;;;;;;;;;;;;;;;;;;
2021/03/08 06:16:56;;;;;;;;;;;;;;;;;;;;;
2021/03/08 06:23:13;;;;;;;;;;;;;;;;;;;;;
2021/03/08 06:29:33;;;;;;;93.30;80.13;;;1.20;99.90;;;;;;5844717;24;20425;-84
2021/03/08 06:32:02;;;;;;;98.50;80.73;;;1.40;99.90;;;;;;5906963;24;20464;-83
2021/03/08 06:34:30;;;;;;;98.20;78.20;;;1.40;99.90;;;;;;6013983;23;20511;-83
2021/03/08 06:37:05;;;;;;;88.60;70.43;;;1.60;99.90;;;;;;6144667;23;20421;-83
2021/03/08 06:42:29;;;;;;;80.30;54.27;;;1.80;99.90;;;;;;6184423;23;20801;-82
2021/03/08 06:45:08;;;;;;;88.23;49.20;;;2.00;99.90;;;;;;6195857;23;20405;-82
2021/03/08 06:47:35;;;;;;;75.17;43.70;;;2.10;99.90;;;;;;6196006;23;20405;-82
2021/03/08 06:50:13;;;;;;;79.63;43.90;;;2.10;99.90;;;;;;6195867;23;20476;-83
2021/03/08 06:52:52;;;;;;;86.90;47.97;;;2.20;99.90;;;;;;6184049;23;20397;-83
2021/03/08 06:55:28;;;;;;;87.30;49.73;;;2.30;99.90;;;;;;6195772;23;20487;-83
2021/03/08 06:58:18;;;;;;;102.60;52.93;;;2.30;99.90;;;;;;6196302;23;20401;-83
2021/03/08 07:01:14;;;;;;;;;;;;;;;;;;;;;
2021/03/08 07:03:57;;;;;;;91.63;50.57;;;2.40;99.90;;;;;;6158381;23;20410;-84
2021/03/08 07:06:23;;;;;;;103.80;52.53;;;2.50;99.90;;;;;;6154690;23;20703;-83
2021/03/08 07:09:15;;;;;;;100.03;52.60;;;2.60;99.90;;;;;;6156114;23;20933;-83
2021/03/08 07:11:43;;;;;;;123.87;62.77;;;2.60;99.90;;;;;;6165583;23;20704;-82
2021/03/08 07:14:23;;;;;;;126.60;69.53;;;2.70;99.90;;;;;;6165890;23;20413;-83
2021/03/08 07:16:50;;;;;;;116.83;65.40;;;2.80;99.90;;;;;;6166320;23;20410;-82
2021/03/08 07:19:25;;;;;;;127.33;71.67;;;2.90;99.90;;;;;;6155517;23;20403;-82
2021/03/08 07:21:55;;;;;;;100.23;61.13;;;3.00;99.90;;;;;;6164669;23;20612;-83
2021/03/08 07:24:25;;;;;;;107.93;65.43;;;3.10;99.90;;;;;;6165216;23;20847;-82
2021/03/08 07:26:55;;;;;;;103.50;56.90;;;3.10;99.90;;;;;;6156280;23;20406;-82
2021/03/08 07:29:28;;;;;;;96.80;56.37;;;3.20;99.90;;;;;;6155916;23;20632;-83
2021/03/08 07:32:04;;;;;;;93.33;50.37;;;3.20;99.90;;;;;;6155967;23;20405;-83
2021/03/08 07:38:33;;;;;;;101.67;51.50;;;3.50;99.90;;;;;;6146135;23;20410;-84
2021/03/08 07:41:21;;;;;;;87.77;51.43;;;3.50;99.90;;;;;;6155510;23;20407;-84
2021/03/08 07:46:58;;;;;;;88.13;42.10;;;3.70;99.90;;;;;;6153704;23;20420;-84
2021/03/08 07:49:37;;;;;;;81.80;39.30;;;3.70;99.90;;;;;;6165309;23;20424;-83
2021/03/08 07:52:17;;;;;;;87.80;46.47;;;3.80;99.90;;;;;;6163884;23;20452;-86
2021/03/08 07:55:39;;;;;;;76.60;39.53;;;3.80;99.90;;;;;;6156028;23;20438;-83
2021/03/08 08:05:07;;;;;;;89.80;36.40;;;3.90;99.90;;;;;;6079479;23;20804;-84
2021/03/08 08:08:29;;;;;;;73.17;32.17;;;4.10;99.90;;;;;;6140024;23;20414;-86
2021/03/08 08:11:02;;;;;;;66.93;33.40;;;4.00;99.90;;;;;;6143288;23;20418;-83
2021/03/08 08:14:01;;;;;;;71.87;40.07;;;4.10;99.90;;;;;;6164319;23;20834;-83
2021/03/08 08:19:34;;;;;;;81.97;38.80;;;4.10;99.90;;;;;;6146042;23;20816;-83
2021/03/08 08:22:50;;;;;;;81.97;39.83;;;4.30;99.90;;;;;;6154522;23;20914;-84
2021/03/08 08:32:15;;;;;;;78.40;40.23;;;4.40;99.90;;;;;;5851844;24;20416;-85
2021/03/08 08:34:59;;;;;;;77.50;36.37;;;4.40;99.90;;;;;;5897835;24;20474;-83
2021/03/08 08:38:27;;;;;;;;;;;;;;;;;;;;;
2021/03/08 08:41:28;;;;;;;60.40;26.67;;;4.50;99.90;;;;;;5955162;24;20179;-83
2021/03/08 08:44:45;;;;;;;77.80;38.80;;;4.50;99.90;;;;;;5996028;23;20767;-83
2021/03/08 08:47:43;;;;;;;;;;;;;;;;;;;;;
2021/03/08 08:50:10;;;;;;;75.10;38.40;;;4.70;99.90;;;;;;6164881;23;20489;-80
2021/03/08 08:52:50;;;;;;;69.53;38.63;;;4.70;99.90;;;;;;6153910;23;20481;-83
2021/03/08 08:55:19;;;;;;;76.17;36.13;;;4.70;99.90;;;;;;6164742;23;20909;-83
2021/03/08 08:58:29;;;;;;;71.37;35.83;;;4.80;99.90;;;;;;6164675;23;20429;-83
2021/03/08 09:01:40;;;;;;;60.03;30.00;;;4.80;99.90;;;;;;6165305;23;20436;-83
2021/03/08 09:10:57;;;;;;;67.00;34.70;;;4.80;99.90;;;;;;6045363;23;20410;-85
2021/03/08 09:14:01;;;;;;;72.43;33.90;;;4.90;99.90;;;;;;6154821;23;20422;-84
2021/03/08 09:16:57;;;;;;;;;;;;;;;;;;;;;
2021/03/08 09:19:31;;;;;;;77.43;38.07;;;4.90;99.90;;;;;;6152166;23;20414;-83
2021/03/08 09:25:39;;;;;;;;;;;;;;;;;;;;;
2021/03/08 09:31:26;;;;;;;66.87;31.67;;;4.90;99.90;;;;;;6041703;23;20897;-83
2021/03/08 09:33:55;;;;;;;69.17;35.27;;;4.90;99.90;;;;;;6165081;23;20464;-84
2021/03/08 09:36:52;;;;;;;;;;;;;;;;;;;;;
2021/03/08 09:39:19;;;;;;;75.33;39.57;;;5.00;99.90;;;;;;6091836;23;20513;-83
2021/03/08 09:42:01;;;;;;;72.60;37.17;;;5.10;99.90;;;;;;6164857;23;20460;-84
2021/03/08 09:44:46;;;;;;;72.70;40.00;;;5.00;99.90;;;;;;6155088;23;20733;-84
2021/03/08 09:47:23;;;;;;;74.57;34.97;;;5.10;99.90;;;;;;6155602;23;20408;-83
2021/03/08 09:50:33;;;;;;;61.67;32.40;;;5.10;99.90;;;;;;6167086;23;20406;-84
2021/03/08 09:53:23;;;;;;;60.67;28.50;;;5.00;99.90;;;;;;6036727;23;20926;-84
2021/03/08 09:55:51;;;;;;;63.80;34.83;;;5.00;99.90;;;;;;6144972;23;20432;-84
2021/03/08 09:58:20;;;;;;;73.40;34.73;;;4.90;99.90;;;;;;6157089;23;20433;-84
2021/03/08 10:00:59;;;;;;;70.50;35.47;;;5.00;99.90;;;;;;6156879;23;20406;-83
2021/03/08 10:03:25;;;;;;;73.80;36.33;;;5.10;99.90;;;;;;6157111;23;20437;-84
2021/03/08 10:05:57;;;;;;;66.33;31.93;;;5.00;99.90;;;;;;6165117;23;20434;-84
2021/03/08 10:08:32;;;;;;;64.70;31.07;;;5.10;99.90;;;;;;6166255;23;20756;-83
2021/03/08 10:11:05;;;;;;;73.10;37.23;;;5.20;99.90;;;;;;6166679;23;20416;-84
2021/03/08 10:13:36;;;;;;;62.97;32.07;;;5.30;99.90;;;;;;6166479;23;20997;-84
2021/03/08 10:16:22;;;;;;;60.97;29.90;;;5.40;99.90;;;;;;6166074;23;20426;-83
2021/03/08 10:18:49;;;;;;;60.63;31.60;;;5.40;99.90;;;;;;6166886;23;20894;-83
2021/03/08 10:21:21;;;;;;;51.20;27.37;;;5.50;99.90;;;;;;6155218;23;20394;-84
2021/03/08 10:24:02;;;;;;;69.50;35.50;;;5.40;99.90;;;;;;6166507;23;20406;-83
2021/03/08 10:26:29;;;;;;;59.27;29.10;;;5.60;99.90;;;;;;6166258;23;20418;-83
2021/03/08 10:29:00;;;;;;;65.87;34.50;;;5.50;99.90;;;;;;6156946;23;20731;-83
2021/03/08 10:31:30;;;;;;;66.50;31.37;;;5.50;99.90;;;;;;6156868;23;20938;-83
2021/03/08 10:34:07;;;;;;;64.43;29.87;;;5.60;99.90;;;;;;6156174;23;20406;-83
2021/03/08 10:36:59;;;;;;;66.47;32.20;;;5.60;99.90;;;;;;6154819;23;20516;-83
2021/03/08 10:39:31;;;;;;;56.87;29.13;;;5.70;99.90;;;;;;6165999;23;20445;-83
2021/03/08 10:42:03;;;;;;;64.17;30.07;;;5.70;99.90;;;;;;6156442;23;20468;-82
2021/03/08 10:44:31;;;;;;;72.00;34.67;;;5.90;96.50;;;;;;6156301;23;20413;-83
2021/03/08 10:46:59;;;;;;;70.20;32.43;;;6.10;99.90;;;;;;6166114;23;20552;-82
2021/03/08 10:49:33;;;;;;;86.37;42.67;;;6.10;96.90;;;;;;6166348;23;20418;-83
2021/03/08 10:52:27;;;;;;;92.50;38.40;;;6.20;94.60;;;;;;6154589;23;20889;-83
2021/03/08 10:54:58;;;;;;;75.50;38.20;;;6.60;92.50;;;;;;6156592;23;20398;-83
2021/03/08 10:57:30;;;;;;;91.10;41.00;;;7.00;84.80;;;;;;6166333;23;20414;-84
2021/03/08 11:00:05;;;;;;;66.27;30.27;;;6.90;79.80;;;;;;6166417;23;20398;-84
2021/03/08 11:03:00;;;;;;;76.93;39.17;;;6.80;74.00;;;;;;6156480;23;20438;-84
2021/03/08 11:05:33;;;;;;;70.40;38.77;;;7.10;79.90;;;;;;6152045;23;20464;-84
2021/03/08 11:08:22;;;;;;;;;;;;;;;;;;;;;
2021/03/08 11:10:53;;;;;;;85.00;37.73;;;7.30;75.60;;;;;;6166064;23;20395;-84
2021/03/08 11:13:32;;;;;;;98.30;46.60;;;7.30;68.70;;;;;;6156445;23;20403;-84
2021/03/08 11:16:29;;;;;;;74.30;41.57;;;7.40;72.50;;;;;;6155220;23;20948;-84
2021/03/08 11:19:17;;;;;;;69.90;37.40;;;7.40;65.40;;;;;;6166280;23;20410;-84
2021/03/08 11:21:47;;;;;;;68.90;38.17;;;7.50;67.90;;;;;;6164405;23;20409;-84
2021/03/08 11:24:18;;;;;;;83.23;41.87;;;7.80;62.00;;;;;;6156103;23;20489;-84
2021/03/08 11:27:13;;;;;;;73.10;38.47;;;8.20;61.10;;;;;;6166135;23;20406;-84
2021/03/08 11:29:41;;;;;;;74.87;35.17;;;8.10;56.80;;;;;;6156518;23;20398;-84
2021/03/08 11:32:31;;;;;;;77.83;41.77;;;8.10;55.10;;;;;;6165986;23;20414;-84
2021/03/08 11:35:23;;;;;;;72.20;38.17;;;8.00;54.20;;;;;;6165835;23;20517;-84
2021/03/08 11:38:22;;;;;;;;;;;;;;;;;;;;;
2021/03/08 11:41:04;;;;;;;;;;;;;;;;;;;;;
2021/03/08 11:43:57;;;;;;;;;;;;;;;;;;;;;
2021/03/08 11:46:25;;;;;;;72.17;34.57;;;7.40;59.70;;;;;;6165905;23;20418;-84
2021/03/08 11:49:10;;;;;;;80.80;39.90;;;7.20;68.10;;;;;;6166476;23;20464;-84
2021/03/08 11:54:18;;;;;;;96.43;38.33;;;6.90;83.00;;;;;;6114568;23;20443;-82
2021/03/08 11:57:02;;;;;;;89.20;42.10;;;6.90;88.10;;;;;;6156179;23;20452;-82
2021/03/08 11:59:34;;;;;;;77.30;35.47;;;6.80;84.80;;;;;;6156439;23;20456;-82
2021/03/08 12:02:07;;;;;;;79.73;38.50;;;6.80;86.40;;;;;;6155693;23;20430;-82
2021/03/08 12:04:42;;;;;;;90.37;39.47;;;7.00;83.70;;;;;;6167141;23;20403;-82
2021/03/08 12:07:11;;;;;;;81.33;36.27;;;7.20;75.70;;;;;;6164040;23;20418;-82
2021/03/08 12:09:50;;;;;;;80.30;38.47;;;7.40;75.70;;;;;;6168098;23;20901;-82
2021/03/08 12:12:24;;;;;;;90.00;42.90;;;7.60;66.80;;;;;;6155804;23;20452;-82
2021/03/08 12:15:02;;;;;;;82.73;41.20;;;8.00;65.10;;;;;;6166054;23;20488;-82
2021/03/08 12:17:47;;;;;;;81.07;39.97;;;8.50;52.20;;;;;;6165968;23;20428;-83
2021/03/08 12:20:25;;;;;;;;;;;;;;;;;;;;;
2021/03/08 12:22:54;;;;;;;71.63;42.33;;;9.20;39.40;;;;;;6163917;23;20484;-83
2021/03/08 12:25:27;;;;;;;66.93;35.07;;;9.10;37.70;;;;;;6165807;23;20417;-82
2021/03/08 12:28:04;;;;;;;78.60;39.00;;;9.30;31.20;;;;;;6166114;23;20410;-83
2021/03/08 12:30:42;;;;;;;74.97;40.73;;;9.30;35.30;;;;;;6165716;23;20436;-82
2021/03/08 12:33:09;;;;;;;73.67;40.23;;;9.00;34.70;;;;;;6165611;23;20464;-82
2021/03/08 12:35:55;;;;;;;70.63;38.67;;;9.00;36.00;;;;;;6155800;23;20440;-82
2021/03/08 12:38:33;;;;;;;;;;;;;;;;;;;;;
2021/03/08 12:41:06;;;;;;;75.23;41.70;;;9.60;30.40;;;;;;6155896;23;20386;-83
2021/03/08 12:43:49;;;;;;;68.23;37.07;;;10.00;26.90;;;;;;6165178;23;20446;-82
2021/03/08 12:46:18;;;;;;;75.20;37.20;;;9.90;25.30;;;;;;6155469;23;20413;-82
2021/03/08 12:48:50;;;;;;;65.90;35.47;;;9.40;29.90;;;;;;6099383;23;20493;-83
2021/03/08 12:51:25;;;;;;;71.23;40.30;;;9.40;27.60;;;;;;6134535;23;20418;-84
2021/03/08 12:53:57;;;;;;;63.67;32.40;;;9.30;30.60;;;;;;6125693;23;20418;-83
2021/03/08 12:56:28;;;;;;;66.27;34.90;;;9.30;35.40;;;;;;6135905;23;20442;-83
2021/03/08 12:58:56;;;;;;;71.43;35.27;;;9.10;32.40;;;;;;6126464;23;20438;-84
2021/03/08 13:01:27;;;;;;;57.60;31.03;;;9.30;31.80;;;;;;6136659;23;20485;-83
2021/03/08 13:03:59;;;;;;;72.17;36.53;;;9.20;35.30;;;;;;6126188;23;20442;-84
2021/03/08 13:06:27;;;;;;;66.43;34.77;;;9.20;36.40;;;;;;6134214;23;20891;-83
2021/03/08 13:09:00;;;;;;;63.47;36.13;;;9.40;36.00;;;;;;6136018;23;20459;-84
2021/03/08 13:11:28;;;;;;;61.40;31.43;;;8.90;43.90;;;;;;6126458;23;20399;-84
2021/03/08 13:13:59;;;;;;;68.53;32.70;;;8.90;42.60;;;;;;6135525;23;20812;-83
2021/03/08 13:16:43;;;;;;;;;;;;;;;;;;;;;
2021/03/08 13:19:16;;;;;;;53.57;25.10;;;8.50;39.80;;;;;;6125669;23;20894;-83
2021/03/08 13:21:54;;;;;;;;;;;;;;;;;;;;;
2021/03/08 13:24:25;;;;;;;53.30;26.30;;;8.30;48.00;;;;;;6137734;23;20410;-83
2021/03/08 13:26:55;;;;;;;62.77;32.40;;;8.40;47.50;;;;;;6137944;23;20862;-83
2021/03/08 13:29:29;;;;;;;43.67;23.47;;;8.20;50.70;;;;;;6128070;23;20438;-84
2021/03/08 13:31:59;;;;;;;53.80;26.97;;;8.00;52.90;;;;;;6137405;23;20468;-83
2021/03/08 13:34:26;;;;;;;54.20;30.63;;;8.20;54.60;;;;;;6128008;23;20446;-83
2021/03/08 13:36:55;;;;;;;54.00;28.47;;;8.30;49.60;;;;;;6135995;23;20442;-83
2021/03/08 13:39:23;;;;;;;44.80;21.93;;;8.30;52.10;;;;;;6128240;23;20403;-84
2021/03/08 13:41:54;;;;;;;54.73;28.30;;;8.50;52.20;;;;;;6137580;23;20426;-83
2021/03/08 13:44:26;;;;;;;46.50;24.27;;;8.70;53.50;;;;;;6127640;23;20433;-84
2021/03/08 13:46:56;;;;;;;50.70;27.07;;;8.60;48.60;;;;;;6137787;23;20473;-83
2021/03/08 13:49:25;;;;;;;48.53;25.13;;;8.50;46.30;;;;;;6127941;23;20777;-84
2021/03/08 13:52:08;;;;;;;51.67;26.43;;;8.60;44.70;;;;;;6126047;23;20406;-84
2021/03/08 13:54:38;;;;;;;61.93;29.80;;;8.60;53.30;;;;;;6127318;23;20403;-84
2021/03/08 13:57:08;;;;;;;42.70;22.33;;;8.60;57.60;;;;;;6137345;23;20477;-83
2021/03/08 13:59:44;;;;;;;49.43;23.47;;;8.60;48.50;;;;;;6127437;23;20403;-83
2021/03/08 14:02:18;;;;;;;60.57;29.00;;;8.60;45.00;;;;;;6137604;23;20461;-83
2021/03/08 14:04:46;;;;;;;43.77;22.43;;;8.30;52.20;;;;;;6137065;23;20486;-82
2021/03/08 14:07:13;;;;;;;40.83;19.23;;;8.30;45.30;;;;;;6135523;23;20419;-83
2021/03/08 14:09:43;;;;;;;41.67;22.27;;;8.50;47.60;;;;;;6127849;23;20718;-83
2021/03/08 14:12:17;;;;;;;47.10;25.80;;;8.40;56.40;;;;;;6127751;23;20406;-83
2021/03/08 14:14:46;;;;;;;52.27;27.20;;;8.30;52.00;;;;;;6137466;23;20485;-83
2021/03/08 14:17:18;;;;;;;44.93;22.27;;;8.30;54.70;;;;;;6137442;23;20418;-83
2021/03/08 14:19:45;;;;;;;36.07;20.30;;;8.30;55.40;;;;;;6127511;23;20399;-83
2021/03/08 14:22:15;;;;;;;35.77;19.77;;;8.40;54.60;;;;;;6135307;23;20454;-83
2021/03/08 14:24:43;;;;;;;53.80;23.87;;;8.20;48.90;;;;;;6137128;23;20411;-83
2021/03/08 14:27:11;;;;;;;42.50;22.47;;;8.30;52.00;;;;;;6127843;23;20541;-83
2021/03/08 14:29:39;;;;;;;48.63;23.77;;;8.50;50.00;;;;;;6127143;23;20891;-83
2021/03/08 14:32:07;;;;;;;49.33;26.33;;;8.50;48.30;;;;;;6136752;23;20404;-83
2021/03/08 14:34:38;;;;;;;43.80;24.30;;;8.60;54.00;;;;;;6127144;23;20761;-83
2021/03/08 14:37:06;;;;;;;42.30;24.03;;;8.70;51.90;;;;;;6126211;23;20404;-83
2021/03/08 14:39:52;;;;;;;41.40;23.20;;;8.60;46.90;;;;;;6127595;23;20407;-84
2021/03/08 14:42:23;;;;;;;46.37;25.80;;;8.60;40.70;;;;;;6127440;23;20435;-83
2021/03/08 14:44:52;;;;;;;47.10;24.53;;;8.70;48.10;;;;;;6137000;23;20411;-83
2021/03/08 14:47:23;;;;;;;53.00;26.03;;;8.70;47.40;;;;;;6137193;23;20411;-83
2021/03/08 14:49:49;;;;;;;47.87;25.43;;;8.40;46.40;;;;;;6136842;23;20493;-83
2021/03/08 14:52:19;;;;;;;46.17;22.43;;;8.30;50.20;;;;;;6135739;23;20875;-83
2021/03/08 14:54:47;;;;;;;47.97;23.97;;;8.40;48.50;;;;;;6136967;23;20429;-83
2021/03/08 14:57:13;;;;;;;41.70;19.73;;;8.30;45.60;;;;;;6096350;23;21601;-83
2021/03/08 14:59:51;;;;;;;39.10;21.40;;;8.30;42.60;;;;;;6127040;23;20406;-83
2021/03/08 15:02:38;;;;;;;40.00;20.43;;;8.30;44.60;;;;;;6127165;23;20517;-83
2021/03/08 15:05:22;;;;;;;;;;;;;;;;;;;;;
2021/03/08 15:07:50;;;;;;;43.73;23.67;;;8.40;42.60;;;;;;6129245;23;20411;-83
2021/03/08 15:10:20;;;;;;;42.00;21.77;;;8.20;43.30;;;;;;6127231;23;20486;-83
2021/03/08 15:12:48;;;;;;;43.20;22.73;;;8.10;49.10;;;;;;6136537;23;20462;-83
2021/03/08 15:15:16;;;;;;;46.63;23.73;;;8.10;49.00;;;;;;6136670;23;20887;-83
2021/03/08 15:17:46;;;;;;;46.67;22.50;;;8.10;45.90;;;;;;6136963;23;20403;-83
2021/03/08 15:20:18;;;;;;;39.27;22.23;;;8.20;50.60;;;;;;6136411;23;20914;-83
2021/03/08 15:22:55;;;;;;;;;;;;;;;;;;;;;
2021/03/08 15:25:24;;;;;;;35.87;18.97;;;8.10;53.30;;;;;;6136986;23;20398;-83
2021/03/08 15:27:54;;;;;;;43.37;23.57;;;8.20;50.30;;;;;;6127570;23;20403;-83
2021/03/08 15:30:23;;;;;;;40.83;20.57;;;8.30;49.70;;;;;;6136760;23;20418;-83
2021/03/08 15:32:51;;;;;;;40.10;22.50;;;8.50;45.90;;;;;;6125933;23;20430;-83
2021/03/08 15:35:19;;;;;;;43.50;20.03;;;8.40;46.70;;;;;;6099842;23;21527;-81
2021/03/08 15:37:45;;;;;;;44.23;21.40;;;8.40;45.70;;;;;;6095926;23;20487;-82
2021/03/08 15:40:13;;;;;;;37.13;20.50;;;8.20;41.60;;;;;;6097579;23;20400;-82
2021/03/08 15:42:49;;;;;;;43.07;23.50;;;8.20;43.30;;;;;;6106868;23;20442;-82
2021/03/08 15:45:18;;;;;;;46.70;21.80;;;8.20;46.00;;;;;;6106688;23;20975;-82
2021/03/08 15:47:49;;;;;;;36.83;21.03;;;8.30;43.40;;;;;;6107575;23;20425;-82
2021/03/08 15:50:17;;;;;;;50.67;23.67;;;8.10;43.30;;;;;;6107053;23;20420;-82
2021/03/08 15:52:45;;;;;;;43.53;23.70;;;8.10;46.10;;;;;;6095924;23;20440;-82
2021/03/08 15:55:15;;;;;;;43.47;22.13;;;7.90;52.80;;;;;;6107135;23;20788;-82
2021/03/08 15:57:42;;;;;;;46.50;25.90;;;8.00;49.00;;;;;;6106930;23;20408;-82
2021/03/08 16:00:09;;;;;;;47.37;23.17;;;7.80;50.00;;;;;;6097031;23;20460;-82